Historyczne dane pomiarowe

Dodano dane terminowe – wersja testowa.

Dane z okresu 1951-2019

Wersja bazy: 1.34 [2019-03-16, lista zmian], aktualizacja planowana na 2019-04-15

Dane meteo z obszaru Polski uzyskane na podstawie danych udostępnionych przez Instytut Meteorologii i Gospodarki Wodnej – Państwowy Instytut Badawczy.

 

Wybierz Datę:    

       

TemperaturaWilgotnośćWiatrCiśnienieOpadyŚniegCzas trwania zjawisk
 Stacja t tx tn tng RH VA  wxwx mslp ppp RRR   cm mm wxwxwxwxwxwxwx
2019-06-19 17.9 25.6 13.7--- 6.7 1.0---- 4.4------------
2019-06-18 15.5 22.2 8.2--- 5.3 0.7---- 0.0------------
2019-06-17 16.7 19.6 14.8--- 5.3 1.3---- 0.4------------
2019-06-16 20.1 29.4 14.5--- 5.3 0.7---- 21.6------------
2019-06-15 22.5 31.0 16.0--- 4.3 1.3---- 0.0------------
2019-06-14 22.5 29.5 15.0--- 4.7 1.3---- 9.1------------
2019-06-13 22.0 30.1 13.3--- 1.7 2.3---- 0.0------------
2019-06-12 22.6 29.0 14.5--- 0.3 3.3---- 0.0------------
2019-06-11 21.9 28.3 13.3--- 0.0 3.0---- 0.0------------
2019-06-10 20.7 28.2 12.3--- 0.0 2.7---- 0.0------------
2019-06-09 18.9 23.8 14.0--- 2.0 2.0---- 0.0------------
2019-06-08 18.5 27.3 11.5--- 2.7 1.7---- 0.0------------
2019-06-07 18.2 24.5 11.3--- 3.3 1.7---- 0.0------------
2019-06-06 17.9 21.8 12.8--- 2.0 2.7---- 0.0------------
2019-06-05 17.0 23.8 11.4--- 2.3 1.7---- 0.0------------
2019-06-04 17.3 23.8 11.3--- 3.7 0.3---- 2.0------------
2019-06-03 16.8 24.3 8.6--- 4.0 1.3---- 0.0------------
2019-06-02 16.5 23.3 10.8--- 3.3 1.0---- 0.0------------
2019-06-01 13.8 21.4 6.7--- 5.0 1.3---- 0.1------------
2019-05-31 11.9 17.6 6.8--- 4.7 0.3---- 0.0------------
2019-05-30 8.5 10.6 6.9--- 8.0 0.3---- 26.2------------
2019-05-29 11.5 15.3 8.8--- 8.0 0.3---- 7.6------------
2019-05-28 15.7 19.8 11.5--- 6.0 3.7---- 0.4------------
2019-05-27 14.7 22.1 7.4--- 5.3 2.3---- 2.3------------
2019-05-26 14.4 22.3 6.9--- 3.0 0.3---- 0.0------------
2019-05-25 13.5 20.8 7.9--- 4.0 1.7---- 0.0------------
2019-05-24 10.5 12.4 8.7--- 8.0 0.3---- 2.0------------
2019-05-23 10.5 12.4 9.3--- 8.0 1.3---- 16.9------------
2019-05-22 12.3 16.5 9.8--- 8.0 0.3---- 32.1------------
2019-05-21 11.5 16.0 7.7--- 8.0 0.0---- 14.0------------
2019-05-20 15.5 19.0 11.0--- 5.7 4.0---- 0.0------------
2019-05-19 14.3 21.9 5.9--- 4.3 1.3---- 0.7------------
2019-05-18 13.8 22.4 6.1--- 3.0 1.3---- 0.0------------
2019-05-17 12.9 18.6 7.7--- 4.3 1.7---- 0.0------------
2019-05-16 11.6 17.4 6.4--- 5.7 1.3---- 0.0------------
2019-05-15 5.4 7.8 2.1--- 8.0 0.0---- 8.3------------
2019-05-14 2.7 6.0 0.6--- 8.0 1.0---- 17.8------------
2019-05-13 7.0 10.4 5.5--- 8.0 1.0---- 5.0------------
2019-05-12 11.0 17.6 6.7--- 6.3 0.7---- 3.6------------
2019-05-11 11.9 17.3 6.4--- 6.0 0.7---- 0.0------------
2019-05-10 9.9 16.1 5.6--- 5.7 0.7---- 2.8------------
2019-05-09 7.0 10.0 2.4--- 7.0 4.3---- 3.2------------
2019-05-08 5.7 12.4 -1.3--- 4.0 2.7---- 0.0------------
2019-05-07 5.6 9.1 1.5--- 7.3 1.7---- 0.1------------
2019-05-06 2.8 5.1 1.0--- 8.0 1.3---- 1.9------------
2019-05-05 4.9 9.7 2.0--- 8.0 0.3---- 11.3------------
2019-05-04 7.1 12.7 2.3--- 6.0 1.3---- 0.4------------
2019-05-03 8.2 14.5 4.4--- 8.0 0.0---- 6.9------------
2019-05-02 12.4 18.4 6.3--- 3.7 2.0---- 0.0------------
2019-05-01 10.5 15.8 6.3--- 4.0 1.0---- 1.9------------
2019-04-30 9.3 10.9 7.9--- 8.0 0.0---- 17.5------------
2019-04-29 8.6 12.1 5.8--- 8.0 0.3---- 1.6------------
2019-04-28 8.0 10.0 6.6--- 8.0 1.0---- 20.4------------
2019-04-27 12.6 20.8 9.0--- 8.0 0.0---- 25.0------------
2019-04-26 16.0 26.6 4.9--- 3.7 1.3---- 0.4------------
2019-04-25 16.7 22.8 12.0--- 2.3 3.3---- 0.0------------
2019-04-24 11.1 13.7 8.0--- 5.0 6.3---- 0.7------------
2019-04-23 9.3 13.0 6.0--- 7.0 4.3---- 0.0------------
2019-04-22 7.2 13.5 2.0--- 6.3 2.3---- 0.4------------
2019-04-21 7.1 17.0 -1.6--- 2.3 1.0---- 0.0------------
185.3 ms

 

Źródłem pochodzenia danych jest Instytut Meteorologii i Gospodarki Wodnej – Państwowy Instytut Badawczy. Dane Instytutu Meteorologii i Gospodarki Wodnej – Państwowego Instytutu Badawczego zostały przetworzone.

Dane źródłowe można odnaleźć na stronie https://dane.imgw.pl